sensor_id;sensor_type;location;lat;lon;timestamp;pressure;altitude;pressure_sealevel;temperature;humidity
51715;BME280;39115;59.332;18.034;2024-03-29T00:00:07;98536.56;;;9.58;64.52
51715;BME280;39115;59.332;18.034;2024-03-29T00:02:28;98534.91;;;9.57;64.38
51715;BME280;39115;59.332;18.034;2024-03-29T00:04:49;98525.13;;;9.58;64.52
51715;BME280;39115;59.332;18.034;2024-03-29T00:07:09;98531.25;;;9.58;64.04
51715;BME280;39115;59.332;18.034;2024-03-29T00:09:30;98535.94;;;9.56;64.17
51715;BME280;39115;59.332;18.034;2024-03-29T00:11:51;98525.31;;;9.56;64.51
51715;BME280;39115;59.332;18.034;2024-03-29T00:14:11;98527.16;;;9.56;64.10
51715;BME280;39115;59.332;18.034;2024-03-29T00:16:32;98534.31;;;9.55;64.45
51715;BME280;39115;59.332;18.034;2024-03-29T00:18:53;98527.34;;;9.54;64.24
51715;BME280;39115;59.332;18.034;2024-03-29T00:21:13;98517.72;;;9.53;64.52
51715;BME280;39115;59.332;18.034;2024-03-29T00:23:34;98525.69;;;9.53;64.38
51715;BME280;39115;59.332;18.034;2024-03-29T00:25:55;98531.00;;;9.53;64.22
51715;BME280;39115;59.332;18.034;2024-03-29T00:28:18;98531.19;;;9.52;64.22
51715;BME280;39115;59.332;18.034;2024-03-29T00:30:39;98537.31;;;9.52;64.63
51715;BME280;39115;59.332;18.034;2024-03-29T00:32:59;98532.00;;;9.52;64.14
51715;BME280;39115;59.332;18.034;2024-03-29T00:35:20;98542.81;;;9.51;64.55
51715;BME280;39115;59.332;18.034;2024-03-29T00:37:42;98540.16;;;9.51;63.86
51715;BME280;39115;59.332;18.034;2024-03-29T00:40:03;98553.59;;;9.49;64.02
51715;BME280;39115;59.332;18.034;2024-03-29T00:42:24;98544.63;;;9.50;63.98
51715;BME280;39115;59.332;18.034;2024-03-29T00:44:45;98542.16;;;9.48;64.29
51715;BME280;39115;59.332;18.034;2024-03-29T00:47:06;98538.69;;;9.48;64.34
51715;BME280;39115;59.332;18.034;2024-03-29T00:49:27;98543.16;;;9.47;64.58
51715;BME280;39115;59.332;18.034;2024-03-29T00:51:47;98538.69;;;9.48;64.50
51715;BME280;39115;59.332;18.034;2024-03-29T00:54:08;98545.00;;;9.47;64.47
51715;BME280;39115;59.332;18.034;2024-03-29T00:56:28;98541.50;;;9.46;64.31
51715;BME280;39115;59.332;18.034;2024-03-29T00:58:49;98540.69;;;9.46;64.26
51715;BME280;39115;59.332;18.034;2024-03-29T01:01:10;98541.50;;;9.46;64.64
51715;BME280;39115;59.332;18.034;2024-03-29T01:03:30;98540.88;;;9.44;64.72
51715;BME280;39115;59.332;18.034;2024-03-29T01:05:51;98540.88;;;9.44;64.08
51715;BME280;39115;59.332;18.034;2024-03-29T01:08:12;98536.56;;;9.43;64.60
51715;BME280;39115;59.332;18.034;2024-03-29T01:10:33;98538.38;;;9.43;63.99
51715;BME280;39115;59.332;18.034;2024-03-29T01:12:54;98532.25;;;9.42;64.43
51715;BME280;39115;59.332;18.034;2024-03-29T01:15:14;98534.06;;;9.42;64.36
51715;BME280;39115;59.332;18.034;2024-03-29T01:17:35;98526.13;;;9.42;64.48
51715;BME280;39115;59.332;18.034;2024-03-29T01:19:56;98527.97;;;9.41;63.95
51715;BME280;39115;59.332;18.034;2024-03-29T01:22:16;98538.56;;;9.41;64.74
51715;BME280;39115;59.332;18.034;2024-03-29T01:24:37;98539.59;;;9.40;64.69
51715;BME280;39115;59.332;18.034;2024-03-29T01:26:57;98542.22;;;9.40;64.35
51715;BME280;39115;59.332;18.034;2024-03-29T01:29:19;98537.94;;;9.39;64.37
51715;BME280;39115;59.332;18.034;2024-03-29T01:31:40;98542.44;;;9.39;64.40
51715;BME280;39115;59.332;18.034;2024-03-29T01:34:00;98544.25;;;9.38;64.35
51715;BME280;39115;59.332;18.034;2024-03-29T01:36:23;98539.78;;;9.39;64.73
51715;BME280;39115;59.332;18.034;2024-03-29T01:38:43;98532.81;;;9.38;64.40
51715;BME280;39115;59.332;18.034;2024-03-29T01:41:05;98530.16;;;9.38;64.62
51715;BME280;39115;59.332;18.034;2024-03-29T01:43:27;98533.81;;;9.37;64.48
51715;BME280;39115;59.332;18.034;2024-03-29T01:45:49;98533.00;;;9.36;64.40
51715;BME280;39115;59.332;18.034;2024-03-29T01:48:11;98529.50;;;9.36;64.30
51715;BME280;39115;59.332;18.034;2024-03-29T01:50:32;98533.34;;;9.33;64.37
51715;BME280;39115;59.332;18.034;2024-03-29T01:52:54;98537.66;;;9.34;63.99
51715;BME280;39115;59.332;18.034;2024-03-29T01:55:15;98539.47;;;9.33;64.82
51715;BME280;39115;59.332;18.034;2024-03-29T01:57:36;98542.97;;;9.34;64.27
51715;BME280;39115;59.332;18.034;2024-03-29T01:59:57;98541.31;;;9.33;64.74
51715;BME280;39115;59.332;18.034;2024-03-29T02:02:18;98537.84;;;9.32;64.22
51715;BME280;39115;59.332;18.034;2024-03-29T02:04:39;98538.00;;;9.31;64.02
51715;BME280;39115;59.332;18.034;2024-03-29T02:07:00;98540.50;;;9.32;64.63
51715;BME280;39115;59.332;18.034;2024-03-29T02:09:21;98538.84;;;9.31;64.45
51715;BME280;39115;59.332;18.034;2024-03-29T02:11:42;98546.81;;;9.31;64.77
51715;BME280;39115;59.332;18.034;2024-03-29T02:14:03;98539.00;;;9.30;64.46
51715;BME280;39115;59.332;18.034;2024-03-29T02:16:23;98546.97;;;9.30;64.47
51715;BME280;39115;59.332;18.034;2024-03-29T02:18:44;98550.66;;;9.29;64.39
51715;BME280;39115;59.332;18.034;2024-03-29T02:21:05;98548.00;;;9.29;64.49
51715;BME280;39115;59.332;18.034;2024-03-29T02:23:27;98551.66;;;9.28;64.34
51715;BME280;39115;59.332;18.034;2024-03-29T02:25:48;98552.47;;;9.28;64.49
51715;BME280;39115;59.332;18.034;2024-03-29T02:28:09;98554.31;;;9.28;64.28
51715;BME280;39115;59.332;18.034;2024-03-29T02:30:30;98556.31;;;9.26;64.50
51715;BME280;39115;59.332;18.034;2024-03-29T02:32:50;98555.50;;;9.25;64.21
51715;BME280;39115;59.332;18.034;2024-03-29T02:35:11;98561.63;;;9.26;64.84
51715;BME280;39115;59.332;18.034;2024-03-29T02:37:32;98563.47;;;9.25;64.85
51715;BME280;39115;59.332;18.034;2024-03-29T02:39:53;98571.59;;;9.24;64.78
51715;BME280;39115;59.332;18.034;2024-03-29T02:42:13;98576.91;;;9.24;64.45
51715;BME280;39115;59.332;18.034;2024-03-29T02:44:34;98594.66;;;9.23;64.21
51715;BME280;39115;59.332;18.034;2024-03-29T02:46:55;98595.66;;;9.22;64.24
51715;BME280;39115;59.332;18.034;2024-03-29T02:49:15;98604.44;;;9.23;65.07
51715;BME280;39115;59.332;18.034;2024-03-29T02:51:36;98600.13;;;9.22;64.78
51715;BME280;39115;59.332;18.034;2024-03-29T02:53:56;98601.16;;;9.21;64.83
51715;BME280;39115;59.332;18.034;2024-03-29T02:56:17;98594.00;;;9.21;64.88
51715;BME280;39115;59.332;18.034;2024-03-29T02:58:41;98596.84;;;9.20;64.09
51715;BME280;39115;59.332;18.034;2024-03-29T03:01:08;98602.97;;;9.20;64.74
51715;BME280;39115;59.332;18.034;2024-03-29T03:03:29;98591.69;;;9.18;64.09
51715;BME280;39115;59.332;18.034;2024-03-29T03:05:50;98596.19;;;9.17;64.25
51715;BME280;39115;59.332;18.034;2024-03-29T03:08:12;98601.50;;;9.17;64.60
51715;BME280;39115;59.332;18.034;2024-03-29T03:10:51;98607.81;;;9.16;64.86
51715;BME280;39115;59.332;18.034;2024-03-29T03:13:21;98604.34;;;9.16;64.35
51715;BME280;39115;59.332;18.034;2024-03-29T03:15:41;98608.81;;;9.15;64.27
51715;BME280;39115;59.332;18.034;2024-03-29T03:18:02;98619.44;;;9.15;64.28
51715;BME280;39115;59.332;18.034;2024-03-29T03:20:23;98614.31;;;9.14;64.32
51715;BME280;39115;59.332;18.034;2024-03-29T03:22:50;98609.00;;;9.14;64.37
51715;BME280;39115;59.332;18.034;2024-03-29T03:25:11;98605.53;;;9.13;64.57
51715;BME280;39115;59.332;18.034;2024-03-29T03:27:32;98601.22;;;9.12;64.56
51715;BME280;39115;59.332;18.034;2024-03-29T03:29:53;98607.34;;;9.13;64.51
51715;BME280;39115;59.332;18.034;2024-03-29T03:32:13;98604.88;;;9.11;64.51
51715;BME280;39115;59.332;18.034;2024-03-29T03:34:34;98604.03;;;9.11;64.36
51715;BME280;39115;59.332;18.034;2024-03-29T03:36:55;98605.88;;;9.10;64.93
51715;BME280;39115;59.332;18.034;2024-03-29T03:39:16;98601.38;;;9.11;64.50
51715;BME280;39115;59.332;18.034;2024-03-29T03:41:36;98598.91;;;9.09;64.62
51715;BME280;39115;59.332;18.034;2024-03-29T03:43:57;98603.41;;;9.09;64.45
51715;BME280;39115;59.332;18.034;2024-03-29T03:46:18;98607.06;;;9.08;64.24
51715;BME280;39115;59.332;18.034;2024-03-29T03:48:38;98611.38;;;9.09;64.53
51715;BME280;39115;59.332;18.034;2024-03-29T03:50:59;98622.97;;;9.08;64.68
51715;BME280;39115;59.332;18.034;2024-03-29T03:53:19;98622.97;;;9.08;64.69
51715;BME280;39115;59.332;18.034;2024-03-29T03:55:40;98628.44;;;9.06;64.70
51715;BME280;39115;59.332;18.034;2024-03-29T03:58:01;98634.59;;;9.07;64.67
51715;BME280;39115;59.332;18.034;2024-03-29T04:00:22;98630.28;;;9.06;64.75
51715;BME280;39115;59.332;18.034;2024-03-29T04:02:47;98636.59;;;9.05;64.16
51715;BME280;39115;59.332;18.034;2024-03-29T04:05:08;98645.41;;;9.05;64.68
51715;BME280;39115;59.332;18.034;2024-03-29T04:07:29;98647.41;;;9.03;64.65
51715;BME280;39115;59.332;18.034;2024-03-29T04:09:53;98648.22;;;9.04;64.98
51715;BME280;39115;59.332;18.034;2024-03-29T04:12:13;98656.34;;;9.02;64.53
51715;BME280;39115;59.332;18.034;2024-03-29T04:14:35;98660.84;;;9.01;64.55
51715;BME280;39115;59.332;18.034;2024-03-29T04:16:55;98665.31;;;9.01;64.37
51715;BME280;39115;59.332;18.034;2024-03-29T04:19:16;98654.69;;;9.01;64.59
51715;BME280;39115;59.332;18.034;2024-03-29T04:21:36;98665.31;;;9.01;64.63
51715;BME280;39115;59.332;18.034;2024-03-29T04:23:57;98663.66;;;9.00;64.79
51715;BME280;39115;59.332;18.034;2024-03-29T04:26:19;98668.16;;;8.99;64.73
51715;BME280;39115;59.332;18.034;2024-03-29T04:28:39;98672.63;;;8.99;64.52
51715;BME280;39115;59.332;18.034;2024-03-29T04:31:01;98665.69;;;8.98;64.73
51715;BME280;39115;59.332;18.034;2024-03-29T04:33:22;98671.81;;;8.98;64.96
51715;BME280;39115;59.332;18.034;2024-03-29T04:35:58;98668.34;;;8.98;64.19
51715;BME280;39115;59.332;18.034;2024-03-29T04:38:20;98674.63;;;8.97;64.61
51715;BME280;39115;59.332;18.034;2024-03-29T04:40:41;98672.13;;;8.95;64.38
51715;BME280;39115;59.332;18.034;2024-03-29T04:43:01;98668.66;;;8.95;64.49
51715;BME280;39115;59.332;18.034;2024-03-29T04:45:22;98670.47;;;8.94;64.87
51715;BME280;39115;59.332;18.034;2024-03-29T04:47:43;98679.28;;;8.95;64.52
51715;BME280;39115;59.332;18.034;2024-03-29T04:50:03;98679.47;;;8.93;64.53
51715;BME280;39115;59.332;18.034;2024-03-29T04:52:24;98678.63;;;8.93;65.02
51715;BME280;39115;59.332;18.034;2024-03-29T04:54:46;98684.94;;;8.92;64.72
51715;BME280;39115;59.332;18.034;2024-03-29T04:57:07;98677.97;;;8.91;64.78
51715;BME280;39115;59.332;18.034;2024-03-29T04:59:28;98676.16;;;8.91;64.82
51715;BME280;39115;59.332;18.034;2024-03-29T05:01:49;98675.31;;;8.91;64.93
51715;BME280;39115;59.332;18.034;2024-03-29T05:04:13;98676.34;;;8.90;64.30
51715;BME280;39115;59.332;18.034;2024-03-29T05:06:37;98684.31;;;8.90;64.38
51715;BME280;39115;59.332;18.034;2024-03-29T05:08:57;98681.81;;;8.88;64.28
51715;BME280;39115;59.332;18.034;2024-03-29T05:11:20;98690.59;;;8.89;64.85
51715;BME280;39115;59.332;18.034;2024-03-29T05:13:40;98686.28;;;8.88;64.69
51715;BME280;39115;59.332;18.034;2024-03-29T05:16:01;98688.09;;;8.87;64.75
51715;BME280;39115;59.332;18.034;2024-03-29T05:18:21;98695.25;;;8.86;64.69
51715;BME280;39115;59.332;18.034;2024-03-29T05:20:42;98698.91;;;8.85;64.62
51715;BME280;39115;59.332;18.034;2024-03-29T05:23:07;98699.75;;;8.86;64.86
51715;BME280;39115;59.332;18.034;2024-03-29T05:25:28;98699.75;;;8.86;64.79
51715;BME280;39115;59.332;18.034;2024-03-29T05:27:49;98701.56;;;8.85;64.75
51715;BME280;39115;59.332;18.034;2024-03-29T05:30:09;98692.94;;;8.83;64.82
51715;BME280;39115;59.332;18.034;2024-03-29T05:32:31;98700.88;;;8.83;64.81
51715;BME280;39115;59.332;18.034;2024-03-29T05:34:52;98707.03;;;8.84;64.93
51715;BME280;39115;59.332;18.034;2024-03-29T05:37:13;98712.53;;;8.82;64.97
51715;BME280;39115;59.332;18.034;2024-03-29T05:39:36;98717.00;;;8.82;64.73
51715;BME280;39115;59.332;18.034;2024-03-29T05:41:56;98720.50;;;8.82;64.87
51715;BME280;39115;59.332;18.034;2024-03-29T05:44:18;98717.00;;;8.82;64.69
51715;BME280;39115;59.332;18.034;2024-03-29T05:46:39;98709.22;;;8.80;64.71
51715;BME280;39115;59.332;18.034;2024-03-29T05:49:00;98717.16;;;8.80;64.64
51715;BME280;39115;59.332;18.034;2024-03-29T05:51:21;98717.16;;;8.80;64.85
51715;BME280;39115;59.332;18.034;2024-03-29T05:53:41;98721.63;;;8.80;64.46
51715;BME280;39115;59.332;18.034;2024-03-29T05:56:02;98722.63;;;8.79;64.31
51715;BME280;39115;59.332;18.034;2024-03-29T05:58:23;98738.53;;;8.79;64.42
51715;BME280;39115;59.332;18.034;2024-03-29T06:00:44;98735.09;;;8.78;64.81
51715;BME280;39115;59.332;18.034;2024-03-29T06:03:05;98733.25;;;8.79;64.62
51715;BME280;39115;59.332;18.034;2024-03-29T06:05:26;98726.31;;;8.78;64.81
51715;BME280;39115;59.332;18.034;2024-03-29T06:07:46;98731.63;;;8.78;64.76
51715;BME280;39115;59.332;18.034;2024-03-29T06:10:07;98745.69;;;8.78;64.63
51715;BME280;39115;59.332;18.034;2024-03-29T06:12:31;98743.22;;;8.77;64.98
51715;BME280;39115;59.332;18.034;2024-03-29T06:14:52;98749.34;;;8.77;64.83
51715;BME280;39115;59.332;18.034;2024-03-29T06:17:31;98747.69;;;8.76;64.92
51715;BME280;39115;59.332;18.034;2024-03-29T06:19:52;98754.66;;;8.77;64.46
51715;BME280;39115;59.332;18.034;2024-03-29T06:22:17;98753.84;;;8.77;64.94
51715;BME280;39115;59.332;18.034;2024-03-29T06:24:38;98751.31;;;8.75;64.64
51715;BME280;39115;59.332;18.034;2024-03-29T06:27:00;98754.81;;;8.76;64.54
51715;BME280;39115;59.332;18.034;2024-03-29T06:29:20;98768.09;;;8.76;64.42
51715;BME280;39115;59.332;18.034;2024-03-29T06:31:41;98773.56;;;8.74;64.33
51715;BME280;39115;59.332;18.034;2024-03-29T06:34:01;98775.19;;;8.75;64.64
51715;BME280;39115;59.332;18.034;2024-03-29T06:36:22;98773.56;;;8.74;64.82
51715;BME280;39115;59.332;18.034;2024-03-29T06:38:43;98781.34;;;8.76;64.63
51715;BME280;39115;59.332;18.034;2024-03-29T06:41:04;98783.16;;;8.75;64.84
51715;BME280;39115;59.332;18.034;2024-03-29T06:43:25;98793.78;;;8.75;64.76
51715;BME280;39115;59.332;18.034;2024-03-29T06:45:45;98799.06;;;8.75;64.76
51715;BME280;39115;59.332;18.034;2024-03-29T06:48:06;98804.38;;;8.75;64.53
51715;BME280;39115;59.332;18.034;2024-03-29T06:50:27;98815.00;;;8.75;64.71
51715;BME280;39115;59.332;18.034;2024-03-29T06:52:48;98814.19;;;8.75;64.87
51715;BME280;39115;59.332;18.034;2024-03-29T06:55:08;98809.69;;;8.75;64.45
51715;BME280;39115;59.332;18.034;2024-03-29T06:57:30;98810.84;;;8.73;64.75
51715;BME280;39115;59.332;18.034;2024-03-29T06:59:52;98808.22;;;8.73;64.70
51715;BME280;39115;59.332;18.034;2024-03-29T07:02:13;98815.00;;;8.75;64.90
51715;BME280;39115;59.332;18.034;2024-03-29T07:04:33;98805.41;;;8.74;64.57
51715;BME280;39115;59.332;18.034;2024-03-29T07:06:54;98811.53;;;8.75;64.62
51715;BME280;39115;59.332;18.034;2024-03-29T07:09:14;98818.66;;;8.74;64.48
51715;BME280;39115;59.332;18.034;2024-03-29T07:11:35;98821.31;;;8.74;64.73
51715;BME280;39115;59.332;18.034;2024-03-29T07:13:56;98821.31;;;8.74;64.65
51715;BME280;39115;59.332;18.034;2024-03-29T07:16:17;98832.75;;;8.75;64.80
51715;BME280;39115;59.332;18.034;2024-03-29T07:18:37;98838.06;;;8.75;64.44
51715;BME280;39115;59.332;18.034;2024-03-29T07:20:58;98841.88;;;8.72;64.83
51715;BME280;39115;59.332;18.034;2024-03-29T07:23:19;98851.31;;;8.75;64.40
51715;BME280;39115;59.332;18.034;2024-03-29T07:25:40;98854.97;;;8.74;64.50
51715;BME280;39115;59.332;18.034;2024-03-29T07:28:02;98854.78;;;8.75;64.51
51715;BME280;39115;59.332;18.034;2024-03-29T07:30:23;98860.09;;;8.75;64.96
51715;BME280;39115;59.332;18.034;2024-03-29T07:32:43;98856.63;;;8.75;64.52
51715;BME280;39115;59.332;18.034;2024-03-29T07:35:04;98854.78;;;8.75;64.75
51715;BME280;39115;59.332;18.034;2024-03-29T07:37:25;98860.94;;;8.76;64.46
51715;BME280;39115;59.332;18.034;2024-03-29T07:39:46;98868.91;;;8.76;64.41
51715;BME280;39115;59.332;18.034;2024-03-29T07:42:08;98867.91;;;8.77;64.20
51715;BME280;39115;59.332;18.034;2024-03-29T07:44:28;98874.88;;;8.78;64.43
51715;BME280;39115;59.332;18.034;2024-03-29T07:46:49;98876.69;;;8.77;65.03
51715;BME280;39115;59.332;18.034;2024-03-29T07:49:10;98881.00;;;8.78;64.88
51715;BME280;39115;59.332;18.034;2024-03-29T07:51:30;98882.47;;;8.81;64.48
51715;BME280;39115;59.332;18.034;2024-03-29T07:53:51;98885.13;;;8.81;64.41
51715;BME280;39115;59.332;18.034;2024-03-29T07:56:12;98888.63;;;8.81;64.74
51715;BME280;39115;59.332;18.034;2024-03-29T07:58:33;98890.28;;;8.82;64.59
51715;BME280;39115;59.332;18.034;2024-03-29T08:00:53;98892.75;;;8.84;64.46
51715;BME280;39115;59.332;18.034;2024-03-29T08:03:14;98894.41;;;8.85;64.62
51715;BME280;39115;59.332;18.034;2024-03-29T08:05:35;98905.84;;;8.85;64.70
51715;BME280;39115;59.332;18.034;2024-03-29T08:07:57;98904.84;;;8.86;64.53
51715;BME280;39115;59.332;18.034;2024-03-29T08:10:17;98902.19;;;8.86;64.50
51715;BME280;39115;59.332;18.034;2024-03-29T08:12:38;98909.00;;;8.89;64.79
51715;BME280;39115;59.332;18.034;2024-03-29T08:14:58;98905.53;;;8.89;64.42
51715;BME280;39115;59.332;18.034;2024-03-29T08:17:19;98912.31;;;8.91;64.01
51715;BME280;39115;59.332;18.034;2024-03-29T08:19:40;98913.97;;;8.92;64.99
51715;BME280;39115;59.332;18.034;2024-03-29T08:22:02;98917.44;;;8.93;64.39
51715;BME280;39115;59.332;18.034;2024-03-29T08:24:22;98919.09;;;8.94;64.36
51715;BME280;39115;59.332;18.034;2024-03-29T08:26:43;98929.53;;;8.95;64.20
51715;BME280;39115;59.332;18.034;2024-03-29T08:29:04;98928.53;;;8.96;64.38
51715;BME280;39115;59.332;18.034;2024-03-29T08:31:25;98930.22;;;8.97;64.41
51715;BME280;39115;59.332;18.034;2024-03-29T08:33:46;98929.22;;;8.98;64.28
51715;BME280;39115;59.332;18.034;2024-03-29T08:36:07;98930.88;;;8.99;64.52
51715;BME280;39115;59.332;18.034;2024-03-29T08:38:28;98937.84;;;9.00;64.24
51715;BME280;39115;59.332;18.034;2024-03-29T08:40:49;98940.31;;;9.02;64.18
51715;BME280;39115;59.332;18.034;2024-03-29T08:43:10;98943.78;;;9.02;64.12
51715;BME280;39115;59.332;18.034;2024-03-29T08:45:31;98945.63;;;9.02;64.43
51715;BME280;39115;59.332;18.034;2024-03-29T08:47:51;98946.28;;;9.04;64.15
51715;BME280;39115;59.332;18.034;2024-03-29T08:50:13;98954.25;;;9.04;64.08
51715;BME280;39115;59.332;18.034;2024-03-29T08:52:34;98950.75;;;9.04;64.17
51715;BME280;39115;59.332;18.034;2024-03-29T08:54:55;98955.91;;;9.05;63.83
51715;BME280;39115;59.332;18.034;2024-03-29T08:57:15;98960.19;;;9.06;64.40
51715;BME280;39115;59.332;18.034;2024-03-29T08:59:36;98961.88;;;9.07;64.03
51715;BME280;39115;59.332;18.034;2024-03-29T09:02:04;98963.53;;;9.08;64.27
51715;BME280;39115;59.332;18.034;2024-03-29T09:04:26;98968.03;;;9.08;63.86
51715;BME280;39115;59.332;18.034;2024-03-29T09:06:47;98969.50;;;9.10;63.88
51715;BME280;39115;59.332;18.034;2024-03-29T09:09:07;98972.81;;;9.12;64.07
51715;BME280;39115;59.332;18.034;2024-03-29T09:11:29;98971.84;;;9.13;64.29
51715;BME280;39115;59.332;18.034;2024-03-29T09:13:49;98977.97;;;9.14;64.55
51715;BME280;39115;59.332;18.034;2024-03-29T09:16:10;98978.63;;;9.16;64.56
51715;BME280;39115;59.332;18.034;2024-03-29T09:18:31;98982.09;;;9.16;63.96
51715;BME280;39115;59.332;18.034;2024-03-29T09:21:01;98979.25;;;9.18;64.17
51715;BME280;39115;59.332;18.034;2024-03-29T09:23:22;98986.22;;;9.19;64.25
51715;BME280;39115;59.332;18.034;2024-03-29T09:25:43;98986.09;;;9.21;64.10
51715;BME280;39115;59.332;18.034;2024-03-29T09:28:04;98989.38;;;9.23;64.15
51715;BME280;39115;59.332;18.034;2024-03-29T09:30:25;98985.72;;;9.24;64.10
51715;BME280;39115;59.332;18.034;2024-03-29T09:32:47;98985.59;;;9.25;63.71
51715;BME280;39115;59.332;18.034;2024-03-29T09:35:09;98988.25;;;9.25;63.89
51715;BME280;39115;59.332;18.034;2024-03-29T09:37:30;98990.72;;;9.27;63.98
51715;BME280;39115;59.332;18.034;2024-03-29T09:39:56;98989.72;;;9.28;64.18
51715;BME280;39115;59.332;18.034;2024-03-29T09:42:16;99001.34;;;9.27;63.96
51715;BME280;39115;59.332;18.034;2024-03-29T09:44:38;99003.00;;;9.28;63.89
51715;BME280;39115;59.332;18.034;2024-03-29T09:47:02;98998.50;;;9.28;63.69
51715;BME280;39115;59.332;18.034;2024-03-29T09:49:24;99000.97;;;9.30;63.98
51715;BME280;39115;59.332;18.034;2024-03-29T09:51:46;99009.63;;;9.32;64.02
51715;BME280;39115;59.332;18.034;2024-03-29T09:54:09;99005.97;;;9.33;63.59
51715;BME280;39115;59.332;18.034;2024-03-29T09:56:33;99011.75;;;9.37;64.37
51715;BME280;39115;59.332;18.034;2024-03-29T09:58:54;99013.41;;;9.38;63.58
51715;BME280;39115;59.332;18.034;2024-03-29T10:01:15;99016.75;;;9.40;64.21
51715;BME280;39115;59.332;18.034;2024-03-29T10:03:40;99019.03;;;9.43;64.09
51715;BME280;39115;59.332;18.034;2024-03-29T10:06:01;99028.66;;;9.44;63.72
51715;BME280;39115;59.332;18.034;2024-03-29T10:08:25;99038.97;;;9.47;63.95
51715;BME280;39115;59.332;18.034;2024-03-29T10:10:46;99039.59;;;9.49;64.10
51715;BME280;39115;59.332;18.034;2024-03-29T10:13:07;99045.59;;;9.51;64.03
51715;BME280;39115;59.332;18.034;2024-03-29T10:15:29;99046.25;;;9.53;64.01
51715;BME280;39115;59.332;18.034;2024-03-29T10:17:52;99054.72;;;9.57;63.47
51715;BME280;39115;59.332;18.034;2024-03-29T10:20:15;99061.50;;;9.59;64.14
51715;BME280;39115;59.332;18.034;2024-03-29T10:22:46;99050.72;;;9.61;64.15
51715;BME280;39115;59.332;18.034;2024-03-29T10:25:07;99064.66;;;9.63;63.61
51715;BME280;39115;59.332;18.034;2024-03-29T10:27:27;99071.63;;;9.64;63.52
51715;BME280;39115;59.332;18.034;2024-03-29T10:29:52;99068.78;;;9.65;64.18
51715;BME280;39115;59.332;18.034;2024-03-29T10:32:13;99077.44;;;9.68;63.58
51715;BME280;39115;59.332;18.034;2024-03-29T10:34:33;99082.56;;;9.69;63.47
51715;BME280;39115;59.332;18.034;2024-03-29T10:36:56;99086.88;;;9.70;63.63
51715;BME280;39115;59.332;18.034;2024-03-29T10:39:17;99079.59;;;9.72;63.35
51715;BME280;39115;59.332;18.034;2024-03-29T10:41:41;99083.91;;;9.73;63.64
51715;BME280;39115;59.332;18.034;2024-03-29T10:44:03;99087.22;;;9.75;63.67
51715;BME280;39115;59.332;18.034;2024-03-29T10:46:25;99087.88;;;9.77;63.39
51715;BME280;39115;59.332;18.034;2024-03-29T10:48:48;99095.84;;;9.77;63.94
51715;BME280;39115;59.332;18.034;2024-03-29T10:51:10;99101.00;;;9.79;63.85
51715;BME280;39115;59.332;18.034;2024-03-29T10:53:31;99111.44;;;9.80;63.77
51715;BME280;39115;59.332;18.034;2024-03-29T10:56:07;99118.44;;;9.81;63.48
51715;BME280;39115;59.332;18.034;2024-03-29T10:58:30;99120.09;;;9.83;63.48
51715;BME280;39115;59.332;18.034;2024-03-29T11:00:57;99121.72;;;9.84;63.77
51715;BME280;39115;59.332;18.034;2024-03-29T11:03:23;99128.06;;;9.83;63.34
51715;BME280;39115;59.332;18.034;2024-03-29T11:05:49;99138.53;;;9.84;63.54
51715;BME280;39115;59.332;18.034;2024-03-29T11:08:10;99137.53;;;9.85;63.53
51715;BME280;39115;59.332;18.034;2024-03-29T11:10:40;99133.88;;;9.86;63.55
51715;BME280;39115;59.332;18.034;2024-03-29T11:13:09;99133.88;;;9.86;63.55
51715;BME280;39115;59.332;18.034;2024-03-29T11:15:37;99134.50;;;9.88;63.12
51715;BME280;39115;59.332;18.034;2024-03-29T11:17:59;99144.16;;;9.89;63.51
51715;BME280;39115;59.332;18.034;2024-03-29T11:20:20;99145.13;;;9.88;63.42
51715;BME280;39115;59.332;18.034;2024-03-29T11:22:44;99150.13;;;9.91;63.33
51715;BME280;39115;59.332;18.034;2024-03-29T11:25:07;99148.28;;;9.92;63.03
51715;BME280;39115;59.332;18.034;2024-03-29T11:27:28;99156.13;;;9.93;63.42
51715;BME280;39115;59.332;18.034;2024-03-29T11:29:49;99157.78;;;9.94;63.48
51715;BME280;39115;59.332;18.034;2024-03-29T11:32:10;99164.72;;;9.95;63.43
51715;BME280;39115;59.332;18.034;2024-03-29T11:34:32;99155.75;;;9.96;64.08
51715;BME280;39115;59.332;18.034;2024-03-29T11:36:53;99159.41;;;9.95;63.74
51715;BME280;39115;59.332;18.034;2024-03-29T11:39:21;99167.22;;;9.97;63.09
51715;BME280;39115;59.332;18.034;2024-03-29T11:41:46;99165.41;;;9.97;63.81
51715;BME280;39115;59.332;18.034;2024-03-29T11:44:08;99169.91;;;9.97;63.06
51715;BME280;39115;59.332;18.034;2024-03-29T11:46:29;99167.06;;;9.99;63.65
51715;BME280;39115;59.332;18.034;2024-03-29T11:48:53;99170.56;;;9.99;63.44
51715;BME280;39115;59.332;18.034;2024-03-29T11:51:17;99166.88;;;10.00;63.74
51715;BME280;39115;59.332;18.034;2024-03-29T11:53:38;99175.69;;;10.01;63.33
51715;BME280;39115;59.332;18.034;2024-03-29T11:56:01;99174.72;;;10.02;63.52
51715;BME280;39115;59.332;18.034;2024-03-29T11:58:23;99179.03;;;10.03;63.47
51715;BME280;39115;59.332;18.034;2024-03-29T12:00:43;99180.50;;;10.05;63.39
51715;BME280;39115;59.332;18.034;2024-03-29T12:03:06;99180.50;;;10.05;63.69
51715;BME280;39115;59.332;18.034;2024-03-29T12:05:27;99184.66;;;10.08;64.05
51715;BME280;39115;59.332;18.034;2024-03-29T12:07:48;99179.16;;;10.09;63.68
51715;BME280;39115;59.332;18.034;2024-03-29T12:10:10;99185.16;;;10.11;63.69
51715;BME280;39115;59.332;18.034;2024-03-29T12:12:30;99190.94;;;10.15;63.62
51715;BME280;39115;59.332;18.034;2024-03-29T12:14:55;99195.09;;;10.18;63.83
51715;BME280;39115;59.332;18.034;2024-03-29T12:17:16;99193.09;;;10.20;63.38
51715;BME280;39115;59.332;18.034;2024-03-29T12:19:40;99197.25;;;10.22;63.59
51715;BME280;39115;59.332;18.034;2024-03-29T12:22:02;99194.25;;;10.25;64.06
51715;BME280;39115;59.332;18.034;2024-03-29T12:24:23;99198.41;;;10.28;64.10
51715;BME280;39115;59.332;18.034;2024-03-29T12:26:44;99204.22;;;10.32;63.83
51715;BME280;39115;59.332;18.034;2024-03-29T12:29:05;99209.03;;;10.36;63.99